Industrial Hedland — 4RBJ — position and weather

sailwx.info

Track history (hours):
 
Tides and Currents Weather Stations Pressure Air Temp Water Temp Dewpoint Dewpoint Depression Visibility Wind Speed Wind Dir Waves Ship Positions

Industrial Hedland

Last reported at 2018-Jul-02 20:15 UTC. Time now 2018-Jul-20 10:44 UTC.
Position N 17°52' W 062°58'.
Warning: this ship's position is 17 days out of date.

Length 118 m; draft 5.6 m.

Type: Cargo ship. MMSI: 417222323.

Date/timePositionNaut miles runAvg speedWind from/ knotsBaromVisibWave heightAir tempDewpointWater temp
2018-Jul-02 20:15N 17°52' W 062°58'413.9
2018-Jul-02 19:58N 17°54' W 063°02'712.5
2018-Jul-02 19:25N 17°58' W 063°07'5 8.0
2018-Jul-02 18:50N 18°00' W 063°03'0 0.0
2018-Jul-02 18:20N 18°00' W 063°03'0 0.0
2018-Jul-02 17:53N 18°00' W 063°03'0 0.0
2018-Jul-02 17:23N 18°00' W 063°03'0 0.0
2018-Jul-02 16:38N 18°00' W 063°03'0 0.0
2018-Jul-02 16:20N 18°00' W 063°03'0 0.0
2018-Jul-02 15:56N 18°00' W 063°03'0 0.0
2018-Jul-02 15:26N 18°00' W 063°03'0 0.0
2018-Jul-02 14:08N 18°00' W 063°03'0 0.0
2018-Jul-02 13:56N 18°00' W 063°03'0 0.0
2018-Jul-02 13:23N 18°00' W 063°03'0 0.0
2018-Jul-02 12:59N 18°00' W 063°03'0 0.0
2018-Jul-02 12:26N 18°00' W 063°03'0 0.0
2018-Jul-02 11:56N 18°00' W 063°03'0 0.0
2018-Jul-02 11:29N 18°00' W 063°03'0 0.9
2018-Jul-02 10:55N 18°00' W 063°03'2 3.3
2018-Jul-02 10:26N 18°00' W 063°05'2 4.1
2018-Jul-02 09:53N 17°60' W 063°07'1 1.5
2018-Jul-02 09:26N 17°59' W 063°08'2 4.8
2018-Jul-02 08:56N 17°58' W 063°10'613.1
2018-Jul-02 08:30N 17°57' W 063°16'713.4
2018-Jul-02 07:58N 17°54' W 063°23'  
2018-Jun-28 03:36N 20°37' W 086°51'114.8
2018-Jun-28 03:31N 20°37' W 086°53'713.4
2018-Jun-28 03:01N 20°32' W 086°57'1 1.4
2018-Jun-28 02:28N 20°31' W 086°57'0 0.1
2018-Jun-28 01:55N 20°31' W 086°57'0 0.0
2018-Jun-28 01:29N 20°31' W 086°57'0 0.1
2018-Jun-28 00:58N 20°31' W 086°57'0 0.0
2018-Jun-28 00:29N 20°31' W 086°57'0 0.1
2018-Jun-27 23:58N 20°31' W 086°57'0 0.0
2018-Jun-27 23:29N 20°31' W 086°57'0 0.0
2018-Jun-27 22:59N 20°31' W 086°57'0 0.0
2018-Jun-27 22:28N 20°31' W 086°57'0 0.0
2018-Jun-27 21:59N 20°31' W 086°57'0 0.1
2018-Jun-27 21:29N 20°31' W 086°57'0 0.0
2018-Jun-27 20:58N 20°31' W 086°57'0 0.0
2018-Jun-27 20:22N 20°31' W 086°57'0 0.1
2018-Jun-27 19:59N 20°31' W 086°57'0 0.0
2018-Jun-27 19:29N 20°31' W 086°57'0 0.1
2018-Jun-27 18:58N 20°31' W 086°57'0 0.0
2018-Jun-27 18:29N 20°31' W 086°57'0 0.1
2018-Jun-27 17:55N 20°31' W 086°57'0 0.0
2018-Jun-27 17:26N 20°31' W 086°57'0 0.0
2018-Jun-27 16:56N 20°31' W 086°57'0 0.1
2018-Jun-27 16:29N 20°31' W 086°57'0 0.0
2018-Jun-27 15:59N 20°31' W 086°57'0 0.0
2018-Jun-27 14:11N 20°31' W 086°57'0 0.3
2018-Jun-27 13:58N 20°31' W 086°57'0 0.1
2018-Jun-27 13:30N 20°31' W 086°57'0 0.3
2018-Jun-27 13:00N 20°31' W 086°57'1 1.7
2018-Jun-27 12:30N 20°32' W 086°58'2 4.7
2018-Jun-27 12:00N 20°34' W 086°59'811.8
2018-Jun-27 11:19N 20°40' W 086°54'  
2018-Jun-25 00:01N 29°09' W 094°27'613.3
2018-Jun-24 23:32N 29°13' W 094°33'013.5
2018-Jun-24 23:30N 29°14' W 094°33'612.0
2018-Jun-24 23:00N 29°18' W 094°37'612.6
2018-Jun-24 22:30N 29°21' W 094°44'510.9
2018-Jun-24 22:00N 29°24' W 094°49'612.5
2018-Jun-24 21:30N 29°29' W 094°52'611.6
2018-Jun-24 21:00N 29°34' W 094°56'511.0
2018-Jun-24 20:30N 29°39' W 094°58'4 8.1
2018-Jun-24 20:00N 29°42' W 095°01'3 6.7
2018-Jun-24 19:30N 29°45' W 095°04'3 5.2
2018-Jun-24 18:51N 29°44' W 095°08'2 5.3
2018-Jun-24 18:30N 29°45' W 095°10'1 0.0
2018-Jun-23 06:48N 29°45' W 095°11'0 0.0
2018-Jun-23 06:27N 29°45' W 095°11'0 0.0
2018-Jun-23 05:57N 29°45' W 095°11'0 0.0
2018-Jun-23 05:27N 29°45' W 095°11'0 0.0
2018-Jun-23 04:57N 29°45' W 095°11'0 0.0
2018-Jun-23 04:30N 29°45' W 095°11'0 0.0
2018-Jun-23 03:57N 29°45' W 095°11'0 0.0
2018-Jun-23 03:18N 29°45' W 095°11'0 0.0
2018-Jun-23 02:57N 29°45' W 095°11'  
Track history (hours):
 
Tides and Currents Weather Stations Pressure Air Temp Water Temp Dewpoint Dewpoint Depression Visibility Wind Speed Wind Dir Waves Ship Positions

Industrial Hedland

Last reported at 2018-Jul-02 20:15 UTC. Time now 2018-Jul-20 10:44 UTC.
Position N 17°52' W 062°58'.
Warning: this ship's position is 17 days out of date.

Length 118 m; draft 5.6 m.

Type: Cargo ship. MMSI: 417222323.

Date/timePositionNaut miles runAvg speedWind from/ knotsBaromVisibWave heightAir tempDewpointWater temp
2018-Jul-02 20:15N 17°52' W 062°58'413.9
2018-Jul-02 19:58N 17°54' W 063°02'712.5
2018-Jul-02 19:25N 17°58' W 063°07'5 8.0
2018-Jul-02 18:50N 18°00' W 063°03'0 0.0
2018-Jul-02 18:20N 18°00' W 063°03'0 0.0
2018-Jul-02 17:53N 18°00' W 063°03'0 0.0
2018-Jul-02 17:23N 18°00' W 063°03'0 0.0
2018-Jul-02 16:38N 18°00' W 063°03'0 0.0
2018-Jul-02 16:20N 18°00' W 063°03'0 0.0
2018-Jul-02 15:56N 18°00' W 063°03'0 0.0
2018-Jul-02 15:26N 18°00' W 063°03'0 0.0
2018-Jul-02 14:08N 18°00' W 063°03'0 0.0
2018-Jul-02 13:56N 18°00' W 063°03'0 0.0
2018-Jul-02 13:23N 18°00' W 063°03'0 0.0
2018-Jul-02 12:59N 18°00' W 063°03'0 0.0
2018-Jul-02 12:26N 18°00' W 063°03'0 0.0
2018-Jul-02 11:56N 18°00' W 063°03'0 0.0
2018-Jul-02 11:29N 18°00' W 063°03'0 0.9
2018-Jul-02 10:55N 18°00' W 063°03'2 3.3
2018-Jul-02 10:26N 18°00' W 063°05'2 4.1
2018-Jul-02 09:53N 17°60' W 063°07'1 1.5
2018-Jul-02 09:26N 17°59' W 063°08'2 4.8
2018-Jul-02 08:56N 17°58' W 063°10'613.1
2018-Jul-02 08:30N 17°57' W 063°16'713.4
2018-Jul-02 07:58N 17°54' W 063°23'  
2018-Jun-28 03:36N 20°37' W 086°51'114.8
2018-Jun-28 03:31N 20°37' W 086°53'713.4
2018-Jun-28 03:01N 20°32' W 086°57'1 1.4
2018-Jun-28 02:28N 20°31' W 086°57'0 0.1
2018-Jun-28 01:55N 20°31' W 086°57'0 0.0
2018-Jun-28 01:29N 20°31' W 086°57'0 0.1
2018-Jun-28 00:58N 20°31' W 086°57'0 0.0
2018-Jun-28 00:29N 20°31' W 086°57'0 0.1
2018-Jun-27 23:58N 20°31' W 086°57'0 0.0
2018-Jun-27 23:29N 20°31' W 086°57'0 0.0
2018-Jun-27 22:59N 20°31' W 086°57'0 0.0
2018-Jun-27 22:28N 20°31' W 086°57'0 0.0
2018-Jun-27 21:59N 20°31' W 086°57'0 0.1
2018-Jun-27 21:29N 20°31' W 086°57'0 0.0
2018-Jun-27 20:58N 20°31' W 086°57'0 0.0
2018-Jun-27 20:22N 20°31' W 086°57'0 0.1
2018-Jun-27 19:59N 20°31' W 086°57'0 0.0
2018-Jun-27 19:29N 20°31' W 086°57'0 0.1
2018-Jun-27 18:58N 20°31' W 086°57'0 0.0
2018-Jun-27 18:29N 20°31' W 086°57'0 0.1
2018-Jun-27 17:55N 20°31' W 086°57'0 0.0
2018-Jun-27 17:26N 20°31' W 086°57'0 0.0
2018-Jun-27 16:56N 20°31' W 086°57'0 0.1
2018-Jun-27 16:29N 20°31' W 086°57'0 0.0
2018-Jun-27 15:59N 20°31' W 086°57'0 0.0
2018-Jun-27 14:11N 20°31' W 086°57'0 0.3
2018-Jun-27 13:58N 20°31' W 086°57'0 0.1
2018-Jun-27 13:30N 20°31' W 086°57'0 0.3
2018-Jun-27 13:00N 20°31' W 086°57'1 1.7
2018-Jun-27 12:30N 20°32' W 086°58'2 4.7
2018-Jun-27 12:00N 20°34' W 086°59'811.8
2018-Jun-27 11:19N 20°40' W 086°54'  
2018-Jun-25 00:01N 29°09' W 094°27'613.3
2018-Jun-24 23:32N 29°13' W 094°33'013.5
2018-Jun-24 23:30N 29°14' W 094°33'612.0
2018-Jun-24 23:00N 29°18' W 094°37'612.6
2018-Jun-24 22:30N 29°21' W 094°44'510.9
2018-Jun-24 22:00N 29°24' W 094°49'612.5
2018-Jun-24 21:30N 29°29' W 094°52'611.6
2018-Jun-24 21:00N 29°34' W 094°56'511.0
2018-Jun-24 20:30N 29°39' W 094°58'4 8.1
2018-Jun-24 20:00N 29°42' W 095°01'3 6.7
2018-Jun-24 19:30N 29°45' W 095°04'3 5.2
2018-Jun-24 18:51N 29°44' W 095°08'2 5.3
2018-Jun-24 18:30N 29°45' W 095°10'1 0.0
2018-Jun-23 06:48N 29°45' W 095°11'0 0.0
2018-Jun-23 06:27N 29°45' W 095°11'0 0.0
2018-Jun-23 05:57N 29°45' W 095°11'0 0.0
2018-Jun-23 05:27N 29°45' W 095°11'0 0.0
2018-Jun-23 04:57N 29°45' W 095°11'0 0.0
2018-Jun-23 04:30N 29°45' W 095°11'0 0.0
2018-Jun-23 03:57N 29°45' W 095°11'0 0.0
2018-Jun-23 03:18N 29°45' W 095°11'0 0.0
2018-Jun-23 02:57N 29°45' W 095°11'  

Dump ship's entire track history